sensor_id;sensor_type;location;lat;lon;timestamp;P1;durP1;ratioP1;P2;durP2;ratioP2
21158;SDS011;10737;45.436;4.390;2023-02-15T00:03:31;11.35;;;8.38;;
21158;SDS011;10737;45.436;4.390;2023-02-15T00:08:34;30.95;;;20.88;;
21158;SDS011;10737;45.436;4.390;2023-02-15T00:13:37;9.68;;;8.27;;
21158;SDS011;10737;45.436;4.390;2023-02-15T00:18:41;7.72;;;6.07;;
21158;SDS011;10737;45.436;4.390;2023-02-15T00:23:45;12.63;;;9.90;;
21158;SDS011;10737;45.436;4.390;2023-02-15T00:28:49;8.45;;;7.35;;
21158;SDS011;10737;45.436;4.390;2023-02-15T00:33:55;12.35;;;9.27;;
21158;SDS011;10737;45.436;4.390;2023-02-15T00:38:58;12.05;;;8.48;;
21158;SDS011;10737;45.436;4.390;2023-02-15T00:44:01;12.20;;;10.77;;
21158;SDS011;10737;45.436;4.390;2023-02-15T00:49:06;15.00;;;9.80;;
21158;SDS011;10737;45.436;4.390;2023-02-15T00:54:09;8.63;;;7.32;;
21158;SDS011;10737;45.436;4.390;2023-02-15T00:59:12;7.75;;;6.45;;
21158;SDS011;10737;45.436;4.390;2023-02-15T01:04:17;12.38;;;8.20;;
21158;SDS011;10737;45.436;4.390;2023-02-15T01:09:20;11.45;;;9.32;;
21158;SDS011;10737;45.436;4.390;2023-02-15T01:14:24;10.00;;;7.97;;
21158;SDS011;10737;45.436;4.390;2023-02-15T01:19:28;7.97;;;7.18;;
21158;SDS011;10737;45.436;4.390;2023-02-15T01:24:31;8.45;;;7.65;;
21158;SDS011;10737;45.436;4.390;2023-02-15T01:29:36;10.52;;;8.38;;
21158;SDS011;10737;45.436;4.390;2023-02-15T01:34:41;8.63;;;7.03;;
21158;SDS011;10737;45.436;4.390;2023-02-15T01:39:44;17.10;;;7.82;;
21158;SDS011;10737;45.436;4.390;2023-02-15T01:44:49;9.52;;;7.20;;
21158;SDS011;10737;45.436;4.390;2023-02-15T01:49:57;8.05;;;7.25;;
21158;SDS011;10737;45.436;4.390;2023-02-15T01:55:01;7.90;;;6.20;;
21158;SDS011;10737;45.436;4.390;2023-02-15T02:00:06;7.47;;;6.40;;
21158;SDS011;10737;45.436;4.390;2023-02-15T02:05:15;9.88;;;7.05;;
21158;SDS011;10737;45.436;4.390;2023-02-15T02:10:19;7.18;;;6.22;;
21158;SDS011;10737;45.436;4.390;2023-02-15T02:15:23;8.02;;;6.00;;
21158;SDS011;10737;45.436;4.390;2023-02-15T02:20:51;6.57;;;5.97;;
21158;SDS011;10737;45.436;4.390;2023-02-15T02:26:03;6.80;;;6.15;;
21158;SDS011;10737;45.436;4.390;2023-02-15T02:31:16;6.35;;;5.75;;
21158;SDS011;10737;45.436;4.390;2023-02-15T02:36:27;6.30;;;5.60;;
21158;SDS011;10737;45.436;4.390;2023-02-15T02:41:36;6.10;;;5.50;;
21158;SDS011;10737;45.436;4.390;2023-02-15T02:46:44;7.03;;;6.18;;
21158;SDS011;10737;45.436;4.390;2023-02-15T02:51:58;6.50;;;5.22;;
21158;SDS011;10737;45.436;4.390;2023-02-15T02:57:01;9.65;;;6.03;;
21158;SDS011;10737;45.436;4.390;2023-02-15T03:02:07;6.82;;;6.10;;
21158;SDS011;10737;45.436;4.390;2023-02-15T03:07:16;5.97;;;5.38;;
21158;SDS011;10737;45.436;4.390;2023-02-15T03:12:29;6.22;;;5.63;;
21158;SDS011;10737;45.436;4.390;2023-02-15T03:17:35;6.90;;;5.88;;
21158;SDS011;10737;45.436;4.390;2023-02-15T03:22:40;7.15;;;5.63;;
21158;SDS011;10737;45.436;4.390;2023-02-15T03:27:47;6.45;;;5.85;;
21158;SDS011;10737;45.436;4.390;2023-02-15T03:32:53;8.85;;;6.63;;
21158;SDS011;10737;45.436;4.390;2023-02-15T03:37:58;7.90;;;7.13;;
21158;SDS011;10737;45.436;4.390;2023-02-15T03:43:04;7.53;;;6.65;;
21158;SDS011;10737;45.436;4.390;2023-02-15T03:48:08;7.05;;;6.35;;
21158;SDS011;10737;45.436;4.390;2023-02-15T03:53:13;5.60;;;5.00;;
21158;SDS011;10737;45.436;4.390;2023-02-15T03:58:17;6.65;;;6.00;;
21158;SDS011;10737;45.436;4.390;2023-02-15T04:03:39;6.30;;;5.78;;
21158;SDS011;10737;45.436;4.390;2023-02-15T04:08:44;6.85;;;6.10;;
21158;SDS011;10737;45.436;4.390;2023-02-15T04:14:05;6.15;;;5.55;;
21158;SDS011;10737;45.436;4.390;2023-02-15T04:19:28;6.07;;;5.10;;
21158;SDS011;10737;45.436;4.390;2023-02-15T04:24:50;5.43;;;5.03;;
21158;SDS011;10737;45.436;4.390;2023-02-15T04:30:11;5.95;;;5.35;;
21158;SDS011;10737;45.436;4.390;2023-02-15T04:35:14;6.35;;;5.70;;
21158;SDS011;10737;45.436;4.390;2023-02-15T04:40:19;6.28;;;5.68;;
21158;SDS011;10737;45.436;4.390;2023-02-15T04:45:22;7.20;;;5.93;;
21158;SDS011;10737;45.436;4.390;2023-02-15T04:50:25;6.90;;;6.20;;
21158;SDS011;10737;45.436;4.390;2023-02-15T04:55:30;7.95;;;6.75;;
21158;SDS011;10737;45.436;4.390;2023-02-15T05:00:33;7.07;;;6.47;;
21158;SDS011;10737;45.436;4.390;2023-02-15T05:05:36;9.68;;;6.63;;
21158;SDS011;10737;45.436;4.390;2023-02-15T05:10:41;8.07;;;7.38;;
21158;SDS011;10737;45.436;4.390;2023-02-15T05:15:46;8.10;;;7.13;;
21158;SDS011;10737;45.436;4.390;2023-02-15T05:20:49;7.85;;;7.05;;
21158;SDS011;10737;45.436;4.390;2023-02-15T05:25:54;8.90;;;7.28;;
21158;SDS011;10737;45.436;4.390;2023-02-15T05:31:14;8.50;;;7.25;;
21158;SDS011;10737;45.436;4.390;2023-02-15T05:36:19;9.38;;;7.15;;
21158;SDS011;10737;45.436;4.390;2023-02-15T05:41:24;9.18;;;7.20;;
21158;SDS011;10737;45.436;4.390;2023-02-15T05:46:27;8.68;;;6.80;;
21158;SDS011;10737;45.436;4.390;2023-02-15T05:51:30;7.88;;;6.97;;
21158;SDS011;10737;45.436;4.390;2023-02-15T05:56:34;7.65;;;6.32;;
21158;SDS011;10737;45.436;4.390;2023-02-15T06:01:38;8.20;;;6.15;;
21158;SDS011;10737;45.436;4.390;2023-02-15T06:06:41;7.55;;;6.45;;
21158;SDS011;10737;45.436;4.390;2023-02-15T06:11:45;7.82;;;6.72;;
21158;SDS011;10737;45.436;4.390;2023-02-15T06:16:48;8.02;;;6.55;;
21158;SDS011;10737;45.436;4.390;2023-02-15T06:21:51;7.72;;;6.18;;
21158;SDS011;10737;45.436;4.390;2023-02-15T06:26:56;11.13;;;7.53;;
21158;SDS011;10737;45.436;4.390;2023-02-15T06:31:59;9.48;;;7.80;;
21158;SDS011;10737;45.436;4.390;2023-02-15T06:37:02;13.80;;;7.28;;
21158;SDS011;10737;45.436;4.390;2023-02-15T06:42:07;8.63;;;6.93;;
21158;SDS011;10737;45.436;4.390;2023-02-15T06:47:10;8.45;;;6.63;;
21158;SDS011;10737;45.436;4.390;2023-02-15T06:52:13;7.93;;;6.75;;
21158;SDS011;10737;45.436;4.390;2023-02-15T06:57:17;10.25;;;6.72;;
21158;SDS011;10737;45.436;4.390;2023-02-15T07:02:21;9.45;;;6.65;;
21158;SDS011;10737;45.436;4.390;2023-02-15T07:07:24;7.95;;;6.30;;
21158;SDS011;10737;45.436;4.390;2023-02-15T07:12:28;9.02;;;7.25;;
21158;SDS011;10737;45.436;4.390;2023-02-15T07:17:47;9.98;;;7.28;;
21158;SDS011;10737;45.436;4.390;2023-02-15T07:22:51;8.75;;;6.57;;
21158;SDS011;10737;45.436;4.390;2023-02-15T07:27:57;8.30;;;7.22;;
21158;SDS011;10737;45.436;4.390;2023-02-15T07:33:00;11.25;;;7.53;;
21158;SDS011;10737;45.436;4.390;2023-02-15T07:38:20;11.48;;;7.45;;
21158;SDS011;10737;45.436;4.390;2023-02-15T07:43:25;7.90;;;7.03;;
21158;SDS011;10737;45.436;4.390;2023-02-15T07:48:29;21.08;;;7.72;;
21158;SDS011;10737;45.436;4.390;2023-02-15T07:53:32;12.75;;;7.57;;
21158;SDS011;10737;45.436;4.390;2023-02-15T07:58:37;19.15;;;7.20;;
21158;SDS011;10737;45.436;4.390;2023-02-15T08:03:57;10.25;;;7.10;;
21158;SDS011;10737;45.436;4.390;2023-02-15T08:09:02;12.60;;;9.80;;
21158;SDS011;10737;45.436;4.390;2023-02-15T08:14:08;11.93;;;8.93;;
21158;SDS011;10737;45.436;4.390;2023-02-15T08:19:11;11.85;;;9.05;;
21158;SDS011;10737;45.436;4.390;2023-02-15T08:24:15;10.65;;;8.60;;
21158;SDS011;10737;45.436;4.390;2023-02-15T08:29:21;16.80;;;10.18;;
21158;SDS011;10737;45.436;4.390;2023-02-15T08:34:25;13.05;;;10.98;;
21158;SDS011;10737;45.436;4.390;2023-02-15T08:39:28;14.93;;;9.95;;
21158;SDS011;10737;45.436;4.390;2023-02-15T08:44:32;16.30;;;11.32;;
21158;SDS011;10737;45.436;4.390;2023-02-15T08:49:35;12.18;;;9.43;;
21158;SDS011;10737;45.436;4.390;2023-02-15T08:54:38;10.20;;;8.25;;
21158;SDS011;10737;45.436;4.390;2023-02-15T08:59:43;9.70;;;8.10;;
21158;SDS011;10737;45.436;4.390;2023-02-15T09:04:46;13.00;;;8.77;;
21158;SDS011;10737;45.436;4.390;2023-02-15T09:09:49;11.85;;;8.07;;
21158;SDS011;10737;45.436;4.390;2023-02-15T09:14:54;12.48;;;8.40;;
21158;SDS011;10737;45.436;4.390;2023-02-15T09:19:57;14.63;;;9.35;;
21158;SDS011;10737;45.436;4.390;2023-02-15T09:25:00;14.60;;;10.05;;
21158;SDS011;10737;45.436;4.390;2023-02-15T09:30:05;21.73;;;13.65;;
21158;SDS011;10737;45.436;4.390;2023-02-15T09:35:09;22.88;;;15.00;;
21158;SDS011;10737;45.436;4.390;2023-02-15T09:40:12;32.97;;;18.13;;
21158;SDS011;10737;45.436;4.390;2023-02-15T09:45:20;29.63;;;20.17;;
21158;SDS011;10737;45.436;4.390;2023-02-15T09:50:27;30.77;;;19.88;;
21158;SDS011;10737;45.436;4.390;2023-02-15T09:55:36;26.52;;;20.00;;
21158;SDS011;10737;45.436;4.390;2023-02-15T10:00:48;29.80;;;20.77;;
21158;SDS011;10737;45.436;4.390;2023-02-15T10:05:59;30.10;;;20.52;;
21158;SDS011;10737;45.436;4.390;2023-02-15T10:11:08;29.67;;;20.60;;
21158;SDS011;10737;45.436;4.390;2023-02-15T10:16:37;28.35;;;21.48;;
21158;SDS011;10737;45.436;4.390;2023-02-15T10:21:47;30.08;;;22.63;;
21158;SDS011;10737;45.436;4.390;2023-02-15T10:26:55;29.15;;;21.45;;
21158;SDS011;10737;45.436;4.390;2023-02-15T10:32:01;31.42;;;22.75;;
21158;SDS011;10737;45.436;4.390;2023-02-15T10:37:11;30.70;;;22.65;;
21158;SDS011;10737;45.436;4.390;2023-02-15T10:42:20;38.38;;;23.70;;
21158;SDS011;10737;45.436;4.390;2023-02-15T10:47:35;36.17;;;24.80;;
21158;SDS011;10737;45.436;4.390;2023-02-15T10:52:48;30.88;;;23.40;;
21158;SDS011;10737;45.436;4.390;2023-02-15T10:57:57;32.45;;;24.83;;
21158;SDS011;10737;45.436;4.390;2023-02-15T11:03:11;33.50;;;24.40;;
21158;SDS011;10737;45.436;4.390;2023-02-15T11:08:19;34.95;;;23.17;;
21158;SDS011;10737;45.436;4.390;2023-02-15T11:13:23;29.35;;;22.20;;
21158;SDS011;10737;45.436;4.390;2023-02-15T11:18:32;33.08;;;22.42;;
21158;SDS011;10737;45.436;4.390;2023-02-15T11:23:35;31.20;;;22.92;;
21158;SDS011;10737;45.436;4.390;2023-02-15T11:28:43;28.52;;;21.08;;
21158;SDS011;10737;45.436;4.390;2023-02-15T11:33:50;28.08;;;20.35;;
21158;SDS011;10737;45.436;4.390;2023-02-15T11:38:56;29.23;;;22.20;;
21158;SDS011;10737;45.436;4.390;2023-02-15T11:44:04;35.13;;;24.65;;
21158;SDS011;10737;45.436;4.390;2023-02-15T11:49:10;34.45;;;24.65;;
21158;SDS011;10737;45.436;4.390;2023-02-15T11:54:21;30.63;;;22.60;;
21158;SDS011;10737;45.436;4.390;2023-02-15T11:59:27;30.55;;;23.42;;
21158;SDS011;10737;45.436;4.390;2023-02-15T12:04:34;27.58;;;20.33;;
21158;SDS011;10737;45.436;4.390;2023-02-15T12:09:44;28.88;;;19.70;;
21158;SDS011;10737;45.436;4.390;2023-02-15T12:14:50;32.53;;;22.77;;
21158;SDS011;10737;45.436;4.390;2023-02-15T12:19:55;34.78;;;22.50;;
21158;SDS011;10737;45.436;4.390;2023-02-15T12:24:59;32.83;;;24.60;;
21158;SDS011;10737;45.436;4.390;2023-02-15T12:30:04;32.60;;;25.05;;
21158;SDS011;10737;45.436;4.390;2023-02-15T12:35:13;35.78;;;27.60;;
21158;SDS011;10737;45.436;4.390;2023-02-15T12:40:20;39.28;;;25.88;;
21158;SDS011;10737;45.436;4.390;2023-02-15T12:45:25;45.80;;;32.60;;
21158;SDS011;10737;45.436;4.390;2023-02-15T12:50:30;38.97;;;28.17;;
21158;SDS011;10737;45.436;4.390;2023-02-15T12:55:36;36.75;;;27.38;;
21158;SDS011;10737;45.436;4.390;2023-02-15T13:00:46;49.80;;;26.00;;
21158;SDS011;10737;45.436;4.390;2023-02-15T13:05:51;30.77;;;23.17;;
21158;SDS011;10737;45.436;4.390;2023-02-15T13:10:55;30.80;;;22.67;;
21158;SDS011;10737;45.436;4.390;2023-02-15T13:15:59;37.72;;;25.77;;
21158;SDS011;10737;45.436;4.390;2023-02-15T13:21:06;36.13;;;26.48;;
21158;SDS011;10737;45.436;4.390;2023-02-15T13:26:14;42.25;;;25.98;;
21158;SDS011;10737;45.436;4.390;2023-02-15T13:31:19;42.10;;;27.83;;
21158;SDS011;10737;45.436;4.390;2023-02-15T13:36:26;40.42;;;28.15;;
21158;SDS011;10737;45.436;4.390;2023-02-15T13:41:31;39.55;;;27.92;;
21158;SDS011;10737;45.436;4.390;2023-02-15T13:46:42;35.35;;;26.73;;
21158;SDS011;10737;45.436;4.390;2023-02-15T13:51:51;37.90;;;27.15;;
21158;SDS011;10737;45.436;4.390;2023-02-15T13:56:58;37.65;;;28.40;;
21158;SDS011;10737;45.436;4.390;2023-02-15T14:02:18;38.28;;;28.17;;
21158;SDS011;10737;45.436;4.390;2023-02-15T14:07:35;42.50;;;27.35;;
21158;SDS011;10737;45.436;4.390;2023-02-15T14:12:48;35.60;;;25.45;;
21158;SDS011;10737;45.436;4.390;2023-02-15T14:17:57;32.58;;;22.08;;
21158;SDS011;10737;45.436;4.390;2023-02-15T14:23:04;28.58;;;21.98;;
21158;SDS011;10737;45.436;4.390;2023-02-15T14:28:13;35.63;;;25.70;;
21158;SDS011;10737;45.436;4.390;2023-02-15T14:33:25;33.20;;;22.92;;
21158;SDS011;10737;45.436;4.390;2023-02-15T14:38:39;31.90;;;24.40;;
21158;SDS011;10737;45.436;4.390;2023-02-15T14:43:48;33.13;;;23.30;;
21158;SDS011;10737;45.436;4.390;2023-02-15T14:48:53;25.08;;;19.92;;
21158;SDS011;10737;45.436;4.390;2023-02-15T14:53:58;33.88;;;23.95;;
21158;SDS011;10737;45.436;4.390;2023-02-15T15:04:23;20.98;;;15.55;;
21158;SDS011;10737;45.436;4.390;2023-02-15T15:09:29;23.95;;;18.33;;
21158;SDS011;10737;45.436;4.390;2023-02-15T15:14:37;25.38;;;18.60;;
21158;SDS011;10737;45.436;4.390;2023-02-15T15:25:12;22.58;;;16.60;;
21158;SDS011;10737;45.436;4.390;2023-02-15T15:36:10;37.75;;;28.92;;
21158;SDS011;10737;45.436;4.390;2023-02-15T15:41:17;32.25;;;23.85;;
21158;SDS011;10737;45.436;4.390;2023-02-15T15:46:34;29.63;;;23.00;;
21158;SDS011;10737;45.436;4.390;2023-02-15T15:51:43;41.28;;;29.48;;
21158;SDS011;10737;45.436;4.390;2023-02-15T15:56:48;33.33;;;24.63;;
21158;SDS011;10737;45.436;4.390;2023-02-15T16:01:52;33.05;;;25.27;;
21158;SDS011;10737;45.436;4.390;2023-02-15T16:06:56;29.20;;;22.13;;
21158;SDS011;10737;45.436;4.390;2023-02-15T16:12:00;33.47;;;23.88;;
21158;SDS011;10737;45.436;4.390;2023-02-15T16:17:04;31.70;;;21.95;;
21158;SDS011;10737;45.436;4.390;2023-02-15T16:22:10;32.72;;;23.65;;
21158;SDS011;10737;45.436;4.390;2023-02-15T16:27:25;33.53;;;26.67;;
21158;SDS011;10737;45.436;4.390;2023-02-15T16:32:30;33.72;;;26.77;;
21158;SDS011;10737;45.436;4.390;2023-02-15T16:37:39;36.42;;;26.40;;
21158;SDS011;10737;45.436;4.390;2023-02-15T16:42:42;38.28;;;26.98;;
21158;SDS011;10737;45.436;4.390;2023-02-15T16:47:46;37.75;;;25.40;;
21158;SDS011;10737;45.436;4.390;2023-02-15T16:52:51;44.05;;;33.80;;
21158;SDS011;10737;45.436;4.390;2023-02-15T16:57:55;34.45;;;26.48;;
21158;SDS011;10737;45.436;4.390;2023-02-15T17:03:02;60.25;;;44.35;;
21158;SDS011;10737;45.436;4.390;2023-02-15T17:08:12;31.98;;;26.73;;
21158;SDS011;10737;45.436;4.390;2023-02-15T17:13:16;35.72;;;25.95;;
21158;SDS011;10737;45.436;4.390;2023-02-15T17:18:20;39.65;;;27.50;;
21158;SDS011;10737;45.436;4.390;2023-02-15T17:23:28;53.15;;;36.60;;
21158;SDS011;10737;45.436;4.390;2023-02-15T17:28:32;49.95;;;38.83;;
21158;SDS011;10737;45.436;4.390;2023-02-15T17:33:36;206.45;;;134.13;;
21158;SDS011;10737;45.436;4.390;2023-02-15T17:44:03;42.17;;;30.00;;
21158;SDS011;10737;45.436;4.390;2023-02-15T17:49:06;46.55;;;34.83;;
21158;SDS011;10737;45.436;4.390;2023-02-15T17:54:09;48.97;;;34.65;;
21158;SDS011;10737;45.436;4.390;2023-02-15T17:59:32;99.65;;;69.82;;
21158;SDS011;10737;45.436;4.390;2023-02-15T18:04:35;51.28;;;35.40;;
21158;SDS011;10737;45.436;4.390;2023-02-15T18:09:56;58.95;;;42.65;;
21158;SDS011;10737;45.436;4.390;2023-02-15T18:15:18;62.10;;;43.30;;
21158;SDS011;10737;45.436;4.390;2023-02-15T18:20:23;52.33;;;36.17;;
21158;SDS011;10737;45.436;4.390;2023-02-15T18:25:29;63.55;;;42.55;;
21158;SDS011;10737;45.436;4.390;2023-02-15T18:30:33;123.82;;;82.75;;
21158;SDS011;10737;45.436;4.390;2023-02-15T18:35:36;52.80;;;37.35;;
21158;SDS011;10737;45.436;4.390;2023-02-15T18:40:40;63.17;;;38.63;;
21158;SDS011;10737;45.436;4.390;2023-02-15T18:45:44;69.93;;;43.45;;
21158;SDS011;10737;45.436;4.390;2023-02-15T18:50:47;59.85;;;39.97;;
21158;SDS011;10737;45.436;4.390;2023-02-15T18:55:51;82.78;;;52.22;;
21158;SDS011;10737;45.436;4.390;2023-02-15T19:00:56;60.72;;;40.80;;
21158;SDS011;10737;45.436;4.390;2023-02-15T19:06:01;99.40;;;63.17;;
21158;SDS011;10737;45.436;4.390;2023-02-15T19:11:10;57.63;;;43.55;;
21158;SDS011;10737;45.436;4.390;2023-02-15T19:16:21;82.05;;;53.85;;
21158;SDS011;10737;45.436;4.390;2023-02-15T19:21:29;41.00;;;30.08;;
21158;SDS011;10737;45.436;4.390;2023-02-15T19:26:33;53.20;;;36.65;;
21158;SDS011;10737;45.436;4.390;2023-02-15T19:31:47;80.53;;;51.55;;
21158;SDS011;10737;45.436;4.390;2023-02-15T19:36:51;35.50;;;24.92;;
21158;SDS011;10737;45.436;4.390;2023-02-15T19:41:55;59.70;;;37.45;;
21158;SDS011;10737;45.436;4.390;2023-02-15T19:46:59;58.20;;;42.50;;
21158;SDS011;10737;45.436;4.390;2023-02-15T19:52:03;30.25;;;21.30;;
21158;SDS011;10737;45.436;4.390;2023-02-15T19:57:09;62.72;;;36.05;;
21158;SDS011;10737;45.436;4.390;2023-02-15T20:02:14;56.53;;;35.22;;
21158;SDS011;10737;45.436;4.390;2023-02-15T20:07:20;61.35;;;40.67;;
21158;SDS011;10737;45.436;4.390;2023-02-15T20:12:25;170.80;;;118.18;;
21158;SDS011;10737;45.436;4.390;2023-02-15T20:17:32;52.47;;;38.08;;
21158;SDS011;10737;45.436;4.390;2023-02-15T20:22:35;30.90;;;23.65;;
21158;SDS011;10737;45.436;4.390;2023-02-15T20:27:38;23.67;;;19.25;;
21158;SDS011;10737;45.436;4.390;2023-02-15T20:32:46;21.55;;;17.98;;
21158;SDS011;10737;45.436;4.390;2023-02-15T20:37:49;72.55;;;49.25;;
21158;SDS011;10737;45.436;4.390;2023-02-15T20:42:54;42.47;;;31.17;;
21158;SDS011;10737;45.436;4.390;2023-02-15T20:47:59;19.63;;;13.35;;
21158;SDS011;10737;45.436;4.390;2023-02-15T20:53:04;95.25;;;59.67;;
21158;SDS011;10737;45.436;4.390;2023-02-15T20:58:12;159.38;;;97.63;;
21158;SDS011;10737;45.436;4.390;2023-02-15T21:03:23;69.50;;;45.30;;
21158;SDS011;10737;45.436;4.390;2023-02-15T21:08:28;23.35;;;18.60;;
21158;SDS011;10737;45.436;4.390;2023-02-15T21:13:32;30.17;;;19.77;;
21158;SDS011;10737;45.436;4.390;2023-02-15T21:18:37;84.68;;;46.80;;
21158;SDS011;10737;45.436;4.390;2023-02-15T21:23:47;94.03;;;52.90;;
21158;SDS011;10737;45.436;4.390;2023-02-15T21:28:50;72.72;;;45.00;;
21158;SDS011;10737;45.436;4.390;2023-02-15T21:33:54;30.27;;;22.13;;
21158;SDS011;10737;45.436;4.390;2023-02-15T21:38:58;31.80;;;22.77;;
21158;SDS011;10737;45.436;4.390;2023-02-15T21:44:01;46.67;;;35.58;;
21158;SDS011;10737;45.436;4.390;2023-02-15T21:49:23;43.92;;;31.77;;
21158;SDS011;10737;45.436;4.390;2023-02-15T21:54:27;42.55;;;28.52;;
21158;SDS011;10737;45.436;4.390;2023-02-15T21:59:30;20.67;;;15.05;;
21158;SDS011;10737;45.436;4.390;2023-02-15T22:04:35;23.20;;;18.98;;
21158;SDS011;10737;45.436;4.390;2023-02-15T22:09:39;34.95;;;23.75;;
21158;SDS011;10737;45.436;4.390;2023-02-15T22:14:51;23.23;;;17.27;;
21158;SDS011;10737;45.436;4.390;2023-02-15T22:19:56;23.48;;;17.88;;
21158;SDS011;10737;45.436;4.390;2023-02-15T22:24:59;22.52;;;17.17;;
21158;SDS011;10737;45.436;4.390;2023-02-15T22:30:03;25.92;;;18.13;;
21158;SDS011;10737;45.436;4.390;2023-02-15T22:35:10;20.92;;;15.52;;
21158;SDS011;10737;45.436;4.390;2023-02-15T22:40:14;23.20;;;14.93;;
21158;SDS011;10737;45.436;4.390;2023-02-15T22:45:19;24.02;;;18.63;;
21158;SDS011;10737;45.436;4.390;2023-02-15T22:50:25;23.58;;;16.95;;
21158;SDS011;10737;45.436;4.390;2023-02-15T22:55:29;21.25;;;16.67;;
21158;SDS011;10737;45.436;4.390;2023-02-15T23:00:37;20.73;;;14.73;;
21158;SDS011;10737;45.436;4.390;2023-02-15T23:05:42;16.58;;;12.80;;
21158;SDS011;10737;45.436;4.390;2023-02-15T23:10:48;20.00;;;13.35;;
21158;SDS011;10737;45.436;4.390;2023-02-15T23:15:54;15.00;;;12.75;;
21158;SDS011;10737;45.436;4.390;2023-02-15T23:21:00;20.05;;;14.20;;
21158;SDS011;10737;45.436;4.390;2023-02-15T23:26:06;26.15;;;18.05;;
21158;SDS011;10737;45.436;4.390;2023-02-15T23:31:14;20.17;;;13.02;;
21158;SDS011;10737;45.436;4.390;2023-02-15T23:36:24;16.83;;;12.32;;
21158;SDS011;10737;45.436;4.390;2023-02-15T23:41:28;15.55;;;11.45;;
21158;SDS011;10737;45.436;4.390;2023-02-15T23:46:32;16.35;;;12.25;;
21158;SDS011;10737;45.436;4.390;2023-02-15T23:51:40;16.70;;;12.52;;
21158;SDS011;10737;45.436;4.390;2023-02-15T23:56:44;16.30;;;12.52;;
